sensor_id;sensor_type;location;lat;lon;timestamp;temperature;humidity
9941;DHT22;5009;50.656;7.188;2023-05-14T04:02:15;10.50;99.90
9941;DHT22;5009;50.656;7.188;2023-05-14T04:04:41;10.50;99.90
9941;DHT22;5009;50.656;7.188;2023-05-14T04:07:06;10.50;99.90
9941;DHT22;5009;50.656;7.188;2023-05-14T04:09:33;10.40;99.90
9941;DHT22;5009;50.656;7.188;2023-05-14T04:11:58;10.40;99.90
9941;DHT22;5009;50.656;7.188;2023-05-14T04:14:24;10.40;99.90
9941;DHT22;5009;50.656;7.188;2023-05-14T04:16:49;10.40;99.90
9941;DHT22;5009;50.656;7.188;2023-05-14T04:19:15;10.40;99.90
9941;DHT22;5009;50.656;7.188;2023-05-14T04:21:41;10.40;99.90
9941;DHT22;5009;50.656;7.188;2023-05-14T04:24:06;10.40;99.90
9941;DHT22;5009;50.656;7.188;2023-05-14T04:26:32;10.40;99.90
9941;DHT22;5009;50.656;7.188;2023-05-14T04:28:57;10.40;99.90
9941;DHT22;5009;50.656;7.188;2023-05-14T04:31:27;10.40;99.90
9941;DHT22;5009;50.656;7.188;2023-05-14T04:33:52;10.50;99.90
9941;DHT22;5009;50.656;7.188;2023-05-14T04:36:18;10.30;99.90
9941;DHT22;5009;50.656;7.188;2023-05-14T04:38:43;10.30;99.90
9941;DHT22;5009;50.656;7.188;2023-05-14T04:41:09;10.40;99.90
9941;DHT22;5009;50.656;7.188;2023-05-14T04:43:34;10.40;99.90
9941;DHT22;5009;50.656;7.188;2023-05-14T04:46:00;10.50;99.90
9941;DHT22;5009;50.656;7.188;2023-05-14T04:48:26;10.50;99.90
9941;DHT22;5009;50.656;7.188;2023-05-14T04:50:52;10.60;99.90
9941;DHT22;5009;50.656;7.188;2023-05-14T04:53:17;10.60;99.90
9941;DHT22;5009;50.656;7.188;2023-05-14T04:55:43;10.50;99.90
9941;DHT22;5009;50.656;7.188;2023-05-14T04:58:08;10.50;99.90
9941;DHT22;5009;50.656;7.188;2023-05-14T05:00:34;10.60;99.90
9941;DHT22;5009;50.656;7.188;2023-05-14T05:02:59;10.60;99.90
9941;DHT22;5009;50.656;7.188;2023-05-14T05:05:25;10.60;99.90
9941;DHT22;5009;50.656;7.188;2023-05-14T05:07:50;10.70;99.90
9941;DHT22;5009;50.656;7.188;2023-05-14T05:10:16;10.60;99.90
9941;DHT22;5009;50.656;7.188;2023-05-14T05:12:41;10.50;99.90
9941;DHT22;5009;50.656;7.188;2023-05-14T05:15:07;10.40;99.90
9941;DHT22;5009;50.656;7.188;2023-05-14T05:17:34;10.30;99.90
9941;DHT22;5009;50.656;7.188;2023-05-14T05:19:59;10.30;99.90
9941;DHT22;5009;50.656;7.188;2023-05-14T05:22:25;10.40;99.90
9941;DHT22;5009;50.656;7.188;2023-05-14T05:24:51;10.50;99.90
9941;DHT22;5009;50.656;7.188;2023-05-14T05:27:16;10.60;99.90
9941;DHT22;5009;50.656;7.188;2023-05-14T05:29:43;10.60;99.90
9941;DHT22;5009;50.656;7.188;2023-05-14T05:32:09;10.60;99.90
9941;DHT22;5009;50.656;7.188;2023-05-14T05:34:34;10.60;99.90
9941;DHT22;5009;50.656;7.188;2023-05-14T05:37:01;10.50;99.90
9941;DHT22;5009;50.656;7.188;2023-05-14T05:39:26;10.60;99.90
9941;DHT22;5009;50.656;7.188;2023-05-14T05:41:53;10.80;99.90
9941;DHT22;5009;50.656;7.188;2023-05-14T05:44:18;10.80;99.90
9941;DHT22;5009;50.656;7.188;2023-05-14T05:46:44;11.00;99.90
9941;DHT22;5009;50.656;7.188;2023-05-14T05:49:09;10.90;99.90
9941;DHT22;5009;50.656;7.188;2023-05-14T05:51:35;11.00;99.90
9941;DHT22;5009;50.656;7.188;2023-05-14T05:54:00;11.00;99.90
9941;DHT22;5009;50.656;7.188;2023-05-14T05:56:26;11.30;99.90
9941;DHT22;5009;50.656;7.188;2023-05-14T05:58:51;11.40;99.90
9941;DHT22;5009;50.656;7.188;2023-05-14T06:01:17;11.50;99.90
9941;DHT22;5009;50.656;7.188;2023-05-14T06:03:42;11.60;99.90
9941;DHT22;5009;50.656;7.188;2023-05-14T06:06:08;11.70;99.90
9941;DHT22;5009;50.656;7.188;2023-05-14T06:08:33;11.80;99.90
9941;DHT22;5009;50.656;7.188;2023-05-14T06:10:59;11.90;99.90
9941;DHT22;5009;50.656;7.188;2023-05-14T06:13:24;12.10;99.90
9941;DHT22;5009;50.656;7.188;2023-05-14T06:15:50;12.30;99.90
9941;DHT22;5009;50.656;7.188;2023-05-14T06:18:16;12.40;99.90
9941;DHT22;5009;50.656;7.188;2023-05-14T06:20:41;13.00;99.90
9941;DHT22;5009;50.656;7.188;2023-05-14T06:23:07;14.00;99.90
9941;DHT22;5009;50.656;7.188;2023-05-14T06:25:33;14.80;99.90
9941;DHT22;5009;50.656;7.188;2023-05-14T06:27:58;15.30;99.90
9941;DHT22;5009;50.656;7.188;2023-05-14T06:30:24;15.90;99.90
9941;DHT22;5009;50.656;7.188;2023-05-14T06:32:49;17.00;99.90
9941;DHT22;5009;50.656;7.188;2023-05-14T06:35:16;17.90;99.90
9941;DHT22;5009;50.656;7.188;2023-05-14T06:37:42;18.60;98.10
9941;DHT22;5009;50.656;7.188;2023-05-14T06:40:08;19.30;96.10
9941;DHT22;5009;50.656;7.188;2023-05-14T06:42:33;19.90;93.50
9941;DHT22;5009;50.656;7.188;2023-05-14T06:44:59;20.90;92.10
9941;DHT22;5009;50.656;7.188;2023-05-14T06:47:24;22.00;90.80
9941;DHT22;5009;50.656;7.188;2023-05-14T06:49:50;23.50;86.90
9941;DHT22;5009;50.656;7.188;2023-05-14T06:52:15;24.90;80.60
9941;DHT22;5009;50.656;7.188;2023-05-14T06:54:41;26.50;73.30
9941;DHT22;5009;50.656;7.188;2023-05-14T06:57:06;26.70;69.90
9941;DHT22;5009;50.656;7.188;2023-05-14T06:59:32;27.60;64.00
9941;DHT22;5009;50.656;7.188;2023-05-14T07:01:57;29.00;59.50
9941;DHT22;5009;50.656;7.188;2023-05-14T07:04:23;28.80;56.30
9941;DHT22;5009;50.656;7.188;2023-05-14T07:06:49;29.40;55.90
9941;DHT22;5009;50.656;7.188;2023-05-14T07:09:15;28.60;53.70
9941;DHT22;5009;50.656;7.188;2023-05-14T07:11:41;28.30;55.00
9941;DHT22;5009;50.656;7.188;2023-05-14T07:14:06;27.70;55.50
9941;DHT22;5009;50.656;7.188;2023-05-14T07:16:32;27.00;55.10
9941;DHT22;5009;50.656;7.188;2023-05-14T07:18:57;25.10;55.10
9941;DHT22;5009;50.656;7.188;2023-05-14T07:21:23;24.20;57.60
9941;DHT22;5009;50.656;7.188;2023-05-14T07:23:48;23.90;58.90
9941;DHT22;5009;50.656;7.188;2023-05-14T07:26:14;24.30;59.80
9941;DHT22;5009;50.656;7.188;2023-05-14T07:28:39;25.20;59.90
9941;DHT22;5009;50.656;7.188;2023-05-14T07:31:05;26.40;59.10
9941;DHT22;5009;50.656;7.188;2023-05-14T07:33:36;27.60;57.70
9941;DHT22;5009;50.656;7.188;2023-05-14T07:36:01;28.80;56.60
9941;DHT22;5009;50.656;7.188;2023-05-14T07:38:27;29.20;55.10
9941;DHT22;5009;50.656;7.188;2023-05-14T07:40:53;30.40;54.00
9941;DHT22;5009;50.656;7.188;2023-05-14T07:43:18;30.60;52.40
9941;DHT22;5009;50.656;7.188;2023-05-14T07:45:44;31.20;51.00
9941;DHT22;5009;50.656;7.188;2023-05-14T07:48:09;32.10;50.60
9941;DHT22;5009;50.656;7.188;2023-05-14T07:50:36;32.40;48.90
9941;DHT22;5009;50.656;7.188;2023-05-14T07:53:01;32.70;48.00
9941;DHT22;5009;50.656;7.188;2023-05-14T07:55:27;33.20;47.80
9941;DHT22;5009;50.656;7.188;2023-05-14T07:57:53;32.80;47.00
9941;DHT22;5009;50.656;7.188;2023-05-14T08:00:18;32.40;47.10
9941;DHT22;5009;50.656;7.188;2023-05-14T08:02:44;31.80;46.90
9941;DHT22;5009;50.656;7.188;2023-05-14T08:05:09;30.60;47.30
9941;DHT22;5009;50.656;7.188;2023-05-14T08:07:35;29.70;48.30
9941;DHT22;5009;50.656;7.188;2023-05-14T08:10:01;28.60;49.00
9941;DHT22;5009;50.656;7.188;2023-05-14T08:12:26;28.00;49.50
9941;DHT22;5009;50.656;7.188;2023-05-14T08:14:53;27.30;50.20
9941;DHT22;5009;50.656;7.188;2023-05-14T08:17:18;27.10;51.00
9941;DHT22;5009;50.656;7.188;2023-05-14T08:19:44;26.80;51.00
9941;DHT22;5009;50.656;7.188;2023-05-14T08:22:09;26.40;51.30
9941;DHT22;5009;50.656;7.188;2023-05-14T08:24:35;26.20;52.10
9941;DHT22;5009;50.656;7.188;2023-05-14T08:27:01;25.90;52.00
9941;DHT22;5009;50.656;7.188;2023-05-14T08:29:27;25.20;53.00
9941;DHT22;5009;50.656;7.188;2023-05-14T08:31:52;25.30;54.30
9941;DHT22;5009;50.656;7.188;2023-05-14T08:34:18;25.00;53.80
9941;DHT22;5009;50.656;7.188;2023-05-14T08:36:43;25.10;54.40
9941;DHT22;5009;50.656;7.188;2023-05-14T08:39:09;25.10;54.00
9941;DHT22;5009;50.656;7.188;2023-05-14T08:41:35;25.20;54.20
9941;DHT22;5009;50.656;7.188;2023-05-14T08:44:22;25.20;55.10
9941;DHT22;5009;50.656;7.188;2023-05-14T08:46:52;25.20;55.00
9941;DHT22;5009;50.656;7.188;2023-05-14T08:49:29;25.30;55.10
9941;DHT22;5009;50.656;7.188;2023-05-14T08:51:56;25.30;54.80
9941;DHT22;5009;50.656;7.188;2023-05-14T08:54:23;25.40;54.40
9941;DHT22;5009;50.656;7.188;2023-05-14T08:56:50;25.30;54.40
9941;DHT22;5009;50.656;7.188;2023-05-14T08:59:16;24.90;54.60
9941;DHT22;5009;50.656;7.188;2023-05-14T09:01:46;25.10;54.80
9941;DHT22;5009;50.656;7.188;2023-05-14T09:04:19;25.00;55.50
9941;DHT22;5009;50.656;7.188;2023-05-14T09:06:48;24.90;54.40
9941;DHT22;5009;50.656;7.188;2023-05-14T09:09:14;24.60;54.10
9941;DHT22;5009;50.656;7.188;2023-05-14T09:11:50;24.60;54.80
9941;DHT22;5009;50.656;7.188;2023-05-14T09:14:16;24.30;55.70
9941;DHT22;5009;50.656;7.188;2023-05-14T09:16:46;24.60;56.30
9941;DHT22;5009;50.656;7.188;2023-05-14T09:19:12;24.60;54.60
9941;DHT22;5009;50.656;7.188;2023-05-14T09:21:39;24.60;54.90
9941;DHT22;5009;50.656;7.188;2023-05-14T09:24:05;24.60;55.60
9941;DHT22;5009;50.656;7.188;2023-05-14T09:26:32;24.50;54.60
9941;DHT22;5009;50.656;7.188;2023-05-14T09:28:59;24.40;55.00
9941;DHT22;5009;50.656;7.188;2023-05-14T09:31:29;24.50;55.70
9941;DHT22;5009;50.656;7.188;2023-05-14T09:33:56;24.10;55.10
9941;DHT22;5009;50.656;7.188;2023-05-14T09:36:22;24.10;55.90
9941;DHT22;5009;50.656;7.188;2023-05-14T09:38:49;24.00;55.60
9941;DHT22;5009;50.656;7.188;2023-05-14T09:41:15;23.80;56.20
9941;DHT22;5009;50.656;7.188;2023-05-14T09:43:41;23.90;56.40
9941;DHT22;5009;50.656;7.188;2023-05-14T09:46:06;23.90;57.00
9941;DHT22;5009;50.656;7.188;2023-05-14T09:48:32;23.90;56.90
9941;DHT22;5009;50.656;7.188;2023-05-14T09:50:58;23.90;56.80
9941;DHT22;5009;50.656;7.188;2023-05-14T09:53:23;24.00;56.60
9941;DHT22;5009;50.656;7.188;2023-05-14T09:55:49;23.90;56.70
9941;DHT22;5009;50.656;7.188;2023-05-14T09:58:15;23.90;56.90
9941;DHT22;5009;50.656;7.188;2023-05-14T10:00:44;23.60;56.10
9941;DHT22;5009;50.656;7.188;2023-05-14T10:03:13;23.60;55.70
9941;DHT22;5009;50.656;7.188;2023-05-14T10:05:40;23.60;55.30
9941;DHT22;5009;50.656;7.188;2023-05-14T10:08:12;23.60;56.20
9941;DHT22;5009;50.656;7.188;2023-05-14T10:10:38;23.20;56.20
9941;DHT22;5009;50.656;7.188;2023-05-14T10:13:08;22.90;56.90
9941;DHT22;5009;50.656;7.188;2023-05-14T10:15:41;23.20;57.10
9941;DHT22;5009;50.656;7.188;2023-05-14T10:18:12;23.20;57.70
9941;DHT22;5009;50.656;7.188;2023-05-14T10:20:41;23.40;57.80
9941;DHT22;5009;50.656;7.188;2023-05-14T10:23:07;23.50;58.20
9941;DHT22;5009;50.656;7.188;2023-05-14T10:25:36;23.40;56.70
9941;DHT22;5009;50.656;7.188;2023-05-14T10:28:02;23.10;56.70
9941;DHT22;5009;50.656;7.188;2023-05-14T10:30:28;23.20;57.10
9941;DHT22;5009;50.656;7.188;2023-05-14T10:33:13;23.20;56.80
9941;DHT22;5009;50.656;7.188;2023-05-14T10:35:59;23.00;56.80
9941;DHT22;5009;50.656;7.188;2023-05-14T10:38:31;23.00;56.40
9941;DHT22;5009;50.656;7.188;2023-05-14T10:41:04;23.00;56.70
9941;DHT22;5009;50.656;7.188;2023-05-14T10:43:35;23.10;56.80
9941;DHT22;5009;50.656;7.188;2023-05-14T10:46:01;22.90;56.90
9941;DHT22;5009;50.656;7.188;2023-05-14T10:48:27;23.00;57.30
9941;DHT22;5009;50.656;7.188;2023-05-14T10:50:54;23.00;56.50
9941;DHT22;5009;50.656;7.188;2023-05-14T10:53:33;23.00;56.40
9941;DHT22;5009;50.656;7.188;2023-05-14T10:56:12;23.00;56.00
9941;DHT22;5009;50.656;7.188;2023-05-14T10:58:42;22.50;56.40
9941;DHT22;5009;50.656;7.188;2023-05-14T11:01:09;22.30;56.80
9941;DHT22;5009;50.656;7.188;2023-05-14T11:03:40;22.50;57.70
9941;DHT22;5009;50.656;7.188;2023-05-14T11:06:06;22.50;57.00
9941;DHT22;5009;50.656;7.188;2023-05-14T11:08:32;22.30;55.60
9941;DHT22;5009;50.656;7.188;2023-05-14T11:10:59;22.30;56.90
9941;DHT22;5009;50.656;7.188;2023-05-14T11:13:25;22.40;56.40
9941;DHT22;5009;50.656;7.188;2023-05-14T11:15:51;22.70;57.60
9941;DHT22;5009;50.656;7.188;2023-05-14T11:18:31;22.90;57.00
9941;DHT22;5009;50.656;7.188;2023-05-14T11:21:01;22.90;56.30
9941;DHT22;5009;50.656;7.188;2023-05-14T11:23:27;22.80;55.00
9941;DHT22;5009;50.656;7.188;2023-05-14T11:25:54;22.70;56.10
9941;DHT22;5009;50.656;7.188;2023-05-14T11:28:21;22.80;55.30
9941;DHT22;5009;50.656;7.188;2023-05-14T11:30:47;22.80;55.90
9941;DHT22;5009;50.656;7.188;2023-05-14T11:33:13;22.80;55.80
9941;DHT22;5009;50.656;7.188;2023-05-14T11:35:39;22.60;55.70
9941;DHT22;5009;50.656;7.188;2023-05-14T11:38:15;22.80;55.40
9941;DHT22;5009;50.656;7.188;2023-05-14T11:40:49;22.80;54.80
9941;DHT22;5009;50.656;7.188;2023-05-14T11:43:15;22.60;54.10
9941;DHT22;5009;50.656;7.188;2023-05-14T11:45:40;22.60;54.50
9941;DHT22;5009;50.656;7.188;2023-05-14T11:48:12;22.40;55.40
9941;DHT22;5009;50.656;7.188;2023-05-14T11:50:39;22.30;56.20
9941;DHT22;5009;50.656;7.188;2023-05-14T11:53:05;22.30;56.70
9941;DHT22;5009;50.656;7.188;2023-05-14T11:55:33;22.20;56.30
9941;DHT22;5009;50.656;7.188;2023-05-14T11:58:00;22.10;56.70
9941;DHT22;5009;50.656;7.188;2023-05-14T12:00:26;22.20;57.20
9941;DHT22;5009;50.656;7.188;2023-05-14T12:02:51;22.30;57.10
9941;DHT22;5009;50.656;7.188;2023-05-14T12:05:18;22.30;56.80
9941;DHT22;5009;50.656;7.188;2023-05-14T12:07:44;22.40;57.60
9941;DHT22;5009;50.656;7.188;2023-05-14T12:10:11;22.60;57.80
9941;DHT22;5009;50.656;7.188;2023-05-14T12:12:37;22.60;57.60
9941;DHT22;5009;50.656;7.188;2023-05-14T12:15:10;22.50;57.00
9941;DHT22;5009;50.656;7.188;2023-05-14T12:17:37;22.40;56.30
9941;DHT22;5009;50.656;7.188;2023-05-14T12:20:03;22.30;56.50
9941;DHT22;5009;50.656;7.188;2023-05-14T12:22:28;22.40;56.50
9941;DHT22;5009;50.656;7.188;2023-05-14T12:24:57;22.60;56.50
9941;DHT22;5009;50.656;7.188;2023-05-14T12:27:24;22.50;56.40
9941;DHT22;5009;50.656;7.188;2023-05-14T12:30:01;22.30;55.90
9941;DHT22;5009;50.656;7.188;2023-05-14T12:32:30;22.30;55.60
9941;DHT22;5009;50.656;7.188;2023-05-14T12:34:56;22.10;54.80
9941;DHT22;5009;50.656;7.188;2023-05-14T12:37:22;22.00;55.40
9941;DHT22;5009;50.656;7.188;2023-05-14T12:39:47;22.00;55.00
9941;DHT22;5009;50.656;7.188;2023-05-14T12:42:14;22.00;55.70
9941;DHT22;5009;50.656;7.188;2023-05-14T12:44:40;22.00;55.00
9941;DHT22;5009;50.656;7.188;2023-05-14T12:47:06;21.90;54.90
9941;DHT22;5009;50.656;7.188;2023-05-14T12:49:31;21.80;55.20
9941;DHT22;5009;50.656;7.188;2023-05-14T12:51:57;21.90;55.60
9941;DHT22;5009;50.656;7.188;2023-05-14T12:54:23;21.90;55.10
9941;DHT22;5009;50.656;7.188;2023-05-14T12:56:48;21.90;54.40
9941;DHT22;5009;50.656;7.188;2023-05-14T12:59:14;22.00;54.70
9941;DHT22;5009;50.656;7.188;2023-05-14T13:01:40;22.20;55.90
9941;DHT22;5009;50.656;7.188;2023-05-14T13:04:06;22.30;54.90
9941;DHT22;5009;50.656;7.188;2023-05-14T13:06:33;22.10;53.70
9941;DHT22;5009;50.656;7.188;2023-05-14T13:08:58;22.20;53.80
9941;DHT22;5009;50.656;7.188;2023-05-14T13:11:26;22.20;54.00
9941;DHT22;5009;50.656;7.188;2023-05-14T13:13:54;22.40;54.90
9941;DHT22;5009;50.656;7.188;2023-05-14T13:16:20;22.50;54.80
9941;DHT22;5009;50.656;7.188;2023-05-14T13:18:45;22.60;54.70
9941;DHT22;5009;50.656;7.188;2023-05-14T13:21:11;22.60;54.40
9941;DHT22;5009;50.656;7.188;2023-05-14T13:23:37;22.70;54.80
9941;DHT22;5009;50.656;7.188;2023-05-14T13:26:02;22.70;54.30
9941;DHT22;5009;50.656;7.188;2023-05-14T13:28:28;22.80;54.70
9941;DHT22;5009;50.656;7.188;2023-05-14T13:31:10;22.80;53.90
9941;DHT22;5009;50.656;7.188;2023-05-14T13:33:39;22.60;52.90
9941;DHT22;5009;50.656;7.188;2023-05-14T13:36:05;22.80;53.90
9941;DHT22;5009;50.656;7.188;2023-05-14T13:38:31;22.90;54.20
9941;DHT22;5009;50.656;7.188;2023-05-14T13:40:56;22.90;53.70
9941;DHT22;5009;50.656;7.188;2023-05-14T13:43:32;22.80;52.60
9941;DHT22;5009;50.656;7.188;2023-05-14T13:45:59;23.00;53.30
9941;DHT22;5009;50.656;7.188;2023-05-14T13:48:25;23.10;53.30
9941;DHT22;5009;50.656;7.188;2023-05-14T13:50:52;22.90;52.60
9941;DHT22;5009;50.656;7.188;2023-05-14T13:53:19;22.90;52.30
9941;DHT22;5009;50.656;7.188;2023-05-14T13:55:45;22.90;52.10
9941;DHT22;5009;50.656;7.188;2023-05-14T13:58:10;22.90;51.80
9941;DHT22;5009;50.656;7.188;2023-05-14T14:00:36;22.90;51.80
9941;DHT22;5009;50.656;7.188;2023-05-14T14:03:01;23.00;52.60
9941;DHT22;5009;50.656;7.188;2023-05-14T14:05:27;22.80;51.90
9941;DHT22;5009;50.656;7.188;2023-05-14T14:07:54;22.80;52.10
9941;DHT22;5009;50.656;7.188;2023-05-14T14:10:20;22.70;51.90
9941;DHT22;5009;50.656;7.188;2023-05-14T14:12:46;22.60;51.50
9941;DHT22;5009;50.656;7.188;2023-05-14T14:15:13;22.60;50.50
9941;DHT22;5009;50.656;7.188;2023-05-14T14:17:38;22.50;50.30
9941;DHT22;5009;50.656;7.188;2023-05-14T14:20:06;22.50;50.60
9941;DHT22;5009;50.656;7.188;2023-05-14T14:22:32;22.40;50.70
9941;DHT22;5009;50.656;7.188;2023-05-14T14:24:58;22.30;50.90
9941;DHT22;5009;50.656;7.188;2023-05-14T14:27:24;22.20;50.70
9941;DHT22;5009;50.656;7.188;2023-05-14T14:29:50;22.20;50.60
9941;DHT22;5009;50.656;7.188;2023-05-14T14:32:15;22.20;50.90
9941;DHT22;5009;50.656;7.188;2023-05-14T14:34:41;22.30;51.10
9941;DHT22;5009;50.656;7.188;2023-05-14T14:37:06;22.30;50.90
9941;DHT22;5009;50.656;7.188;2023-05-14T14:39:32;22.20;50.70
9941;DHT22;5009;50.656;7.188;2023-05-14T14:41:58;22.20;50.50
9941;DHT22;5009;50.656;7.188;2023-05-14T14:44:23;22.30;51.30
9941;DHT22;5009;50.656;7.188;2023-05-14T14:46:49;22.30;50.80
9941;DHT22;5009;50.656;7.188;2023-05-14T14:49:14;22.40;51.30
9941;DHT22;5009;50.656;7.188;2023-05-14T14:51:40;22.50;51.00
9941;DHT22;5009;50.656;7.188;2023-05-14T14:54:06;22.60;50.70
9941;DHT22;5009;50.656;7.188;2023-05-14T14:56:32;22.60;49.90
9941;DHT22;5009;50.656;7.188;2023-05-14T14:58:57;22.60;50.20
9941;DHT22;5009;50.656;7.188;2023-05-14T15:01:23;22.60;50.20
9941;DHT22;5009;50.656;7.188;2023-05-14T15:03:48;22.60;50.60
9941;DHT22;5009;50.656;7.188;2023-05-14T15:06:14;22.60;50.60
9941;DHT22;5009;50.656;7.188;2023-05-14T15:08:39;22.60;50.30
9941;DHT22;5009;50.656;7.188;2023-05-14T15:11:06;22.60;50.50
9941;DHT22;5009;50.656;7.188;2023-05-14T15:13:32;22.60;50.70
9941;DHT22;5009;50.656;7.188;2023-05-14T15:15:58;22.70;50.60
9941;DHT22;5009;50.656;7.188;2023-05-14T15:18:24;22.70;50.70
9941;DHT22;5009;50.656;7.188;2023-05-14T15:20:50;22.80;51.00
9941;DHT22;5009;50.656;7.188;2023-05-14T15:23:17;22.80;50.70
9941;DHT22;5009;50.656;7.188;2023-05-14T15:25:43;22.70;50.40
9941;DHT22;5009;50.656;7.188;2023-05-14T15:28:08;22.60;49.30
9941;DHT22;5009;50.656;7.188;2023-05-14T15:30:34;22.70;49.40
9941;DHT22;5009;50.656;7.188;2023-05-14T15:33:00;22.70;49.60
9941;DHT22;5009;50.656;7.188;2023-05-14T15:35:25;22.80;49.50
9941;DHT22;5009;50.656;7.188;2023-05-14T15:37:54;22.80;49.40
9941;DHT22;5009;50.656;7.188;2023-05-14T15:40:21;22.70;48.90
9941;DHT22;5009;50.656;7.188;2023-05-14T15:42:47;22.70;49.00
9941;DHT22;5009;50.656;7.188;2023-05-14T15:45:13;22.80;49.50
9941;DHT22;5009;50.656;7.188;2023-05-14T15:47:39;22.70;49.40
9941;DHT22;5009;50.656;7.188;2023-05-14T15:50:06;22.60;49.10
9941;DHT22;5009;50.656;7.188;2023-05-14T15:52:31;22.50;49.00
9941;DHT22;5009;50.656;7.188;2023-05-14T15:54:57;22.50;48.90
9941;DHT22;5009;50.656;7.188;2023-05-14T15:57:24;22.70;49.00
9941;DHT22;5009;50.656;7.188;2023-05-14T15:59:50;22.80;49.00
9941;DHT22;5009;50.656;7.188;2023-05-14T16:02:15;22.80;49.40
9941;DHT22;5009;50.656;7.188;2023-05-14T16:04:41;22.80;49.30
9941;DHT22;5009;50.656;7.188;2023-05-14T16:07:09;22.70;48.40
9941;DHT22;5009;50.656;7.188;2023-05-14T16:09:34;22.60;48.80
9941;DHT22;5009;50.656;7.188;2023-05-14T16:12:00;22.40;49.40
9941;DHT22;5009;50.656;7.188;2023-05-14T16:14:26;22.20;49.80
9941;DHT22;5009;50.656;7.188;2023-05-14T16:16:52;22.00;50.20
9941;DHT22;5009;50.656;7.188;2023-05-14T16:19:18;22.00;50.60
9941;DHT22;5009;50.656;7.188;2023-05-14T16:21:44;22.00;50.70
9941;DHT22;5009;50.656;7.188;2023-05-14T16:24:09;21.90;50.50
9941;DHT22;5009;50.656;7.188;2023-05-14T16:26:37;21.80;50.40
9941;DHT22;5009;50.656;7.188;2023-05-14T16:29:03;21.60;50.30
9941;DHT22;5009;50.656;7.188;2023-05-14T16:31:28;21.60;50.80
9941;DHT22;5009;50.656;7.188;2023-05-14T16:33:55;21.50;50.80
9941;DHT22;5009;50.656;7.188;2023-05-14T16:36:21;21.50;51.20
9941;DHT22;5009;50.656;7.188;2023-05-14T16:38:47;21.40;50.90
9941;DHT22;5009;50.656;7.188;2023-05-14T16:41:13;21.40;51.10
9941;DHT22;5009;50.656;7.188;2023-05-14T16:43:38;21.40;51.20
9941;DHT22;5009;50.656;7.188;2023-05-14T16:46:04;21.40;51.40
9941;DHT22;5009;50.656;7.188;2023-05-14T16:48:30;21.50;51.60
9941;DHT22;5009;50.656;7.188;2023-05-14T16:50:56;21.40;51.80
9941;DHT22;5009;50.656;7.188;2023-05-14T16:53:23;21.30;51.50
9941;DHT22;5009;50.656;7.188;2023-05-14T16:55:49;21.20;51.70
9941;DHT22;5009;50.656;7.188;2023-05-14T16:58:15;21.10;51.50
9941;DHT22;5009;50.656;7.188;2023-05-14T17:00:40;21.20;51.50
9941;DHT22;5009;50.656;7.188;2023-05-14T17:03:06;21.20;52.10
9941;DHT22;5009;50.656;7.188;2023-05-14T17:05:33;21.30;52.30
9941;DHT22;5009;50.656;7.188;2023-05-14T17:07:58;21.20;52.00
9941;DHT22;5009;50.656;7.188;2023-05-14T17:10:25;21.20;52.20
9941;DHT22;5009;50.656;7.188;2023-05-14T17:12:51;21.30;52.50
9941;DHT22;5009;50.656;7.188;2023-05-14T17:15:17;21.20;52.10
9941;DHT22;5009;50.656;7.188;2023-05-14T17:17:42;21.20;52.20
9941;DHT22;5009;50.656;7.188;2023-05-14T17:20:08;21.10;52.40
9941;DHT22;5009;50.656;7.188;2023-05-14T17:22:34;21.10;52.80
9941;DHT22;5009;50.656;7.188;2023-05-14T17:25:00;21.10;52.50
9941;DHT22;5009;50.656;7.188;2023-05-14T17:27:25;21.10;52.30
9941;DHT22;5009;50.656;7.188;2023-05-14T17:29:53;21.00;52.10
9941;DHT22;5009;50.656;7.188;2023-05-14T17:32:19;20.90;52.30
9941;DHT22;5009;50.656;7.188;2023-05-14T17:34:44;20.90;52.50
9941;DHT22;5009;50.656;7.188;2023-05-14T17:37:10;20.80;52.40
9941;DHT22;5009;50.656;7.188;2023-05-14T17:39:36;20.80;52.60
9941;DHT22;5009;50.656;7.188;2023-05-14T17:42:01;20.80;52.40
9941;DHT22;5009;50.656;7.188;2023-05-14T17:44:28;20.70;52.10
9941;DHT22;5009;50.656;7.188;2023-05-14T17:46:54;20.60;52.40
9941;DHT22;5009;50.656;7.188;2023-05-14T17:49:20;20.60;52.00
9941;DHT22;5009;50.656;7.188;2023-05-14T17:51:45;20.50;52.00
9941;DHT22;5009;50.656;7.188;2023-05-14T17:54:11;20.50;52.20
9941;DHT22;5009;50.656;7.188;2023-05-14T17:56:37;20.40;51.90
9941;DHT22;5009;50.656;7.188;2023-05-14T17:59:03;20.40;52.20
9941;DHT22;5009;50.656;7.188;2023-05-14T18:01:28;20.40;52.40
9941;DHT22;5009;50.656;7.188;2023-05-14T18:03:54;20.30;52.40
9941;DHT22;5009;50.656;7.188;2023-05-14T18:06:19;20.30;52.50
9941;DHT22;5009;50.656;7.188;2023-05-14T18:08:45;20.30;52.40
9941;DHT22;5009;50.656;7.188;2023-05-14T18:11:10;20.20;52.40
9941;DHT22;5009;50.656;7.188;2023-05-14T18:13:36;20.30;52.70
9941;DHT22;5009;50.656;7.188;2023-05-14T18:16:01;20.20;52.70
9941;DHT22;5009;50.656;7.188;2023-05-14T18:18:28;20.20;52.90
9941;DHT22;5009;50.656;7.188;2023-05-14T18:20:53;20.20;53.30
9941;DHT22;5009;50.656;7.188;2023-05-14T18:23:19;20.10;52.90
9941;DHT22;5009;50.656;7.188;2023-05-14T18:25:45;20.10;52.90
9941;DHT22;5009;50.656;7.188;2023-05-14T18:28:10;20.00;53.10
9941;DHT22;5009;50.656;7.188;2023-05-14T18:30:36;20.00;53.40
9941;DHT22;5009;50.656;7.188;2023-05-14T18:33:02;20.00;53.30
9941;DHT22;5009;50.656;7.188;2023-05-14T18:35:27;20.00;53.50
9941;DHT22;5009;50.656;7.188;2023-05-14T18:37:53;19.90;53.50
9941;DHT22;5009;50.656;7.188;2023-05-14T18:40:19;19.90;53.80
9941;DHT22;5009;50.656;7.188;2023-05-14T18:42:45;19.90;54.00
9941;DHT22;5009;50.656;7.188;2023-05-14T18:45:10;19.90;54.10
9941;DHT22;5009;50.656;7.188;2023-05-14T18:47:36;19.80;54.00
9941;DHT22;5009;50.656;7.188;2023-05-14T18:50:02;19.80;54.20
9941;DHT22;5009;50.656;7.188;2023-05-14T18:52:29;19.70;54.30
9941;DHT22;5009;50.656;7.188;2023-05-14T18:54:54;19.70;54.70
9941;DHT22;5009;50.656;7.188;2023-05-14T18:57:20;19.70;55.40
9941;DHT22;5009;50.656;7.188;2023-05-14T18:59:46;19.60;57.20
9941;DHT22;5009;50.656;7.188;2023-05-14T19:02:12;19.60;59.00
9941;DHT22;5009;50.656;7.188;2023-05-14T19:04:37;19.50;60.20
9941;DHT22;5009;50.656;7.188;2023-05-14T19:07:05;19.40;62.30
9941;DHT22;5009;50.656;7.188;2023-05-14T19:09:30;19.30;65.20
9941;DHT22;5009;50.656;7.188;2023-05-14T19:11:56;19.20;68.80
9941;DHT22;5009;50.656;7.188;2023-05-14T19:14:21;19.10;71.90
9941;DHT22;5009;50.656;7.188;2023-05-14T19:16:47;19.00;73.80
9941;DHT22;5009;50.656;7.188;2023-05-14T19:19:12;18.90;74.40
9941;DHT22;5009;50.656;7.188;2023-05-14T19:21:38;18.80;72.90
9941;DHT22;5009;50.656;7.188;2023-05-14T19:24:04;18.80;72.90
9941;DHT22;5009;50.656;7.188;2023-05-14T19:26:30;18.80;75.20
9941;DHT22;5009;50.656;7.188;2023-05-14T19:28:56;18.60;72.00
9941;DHT22;5009;50.656;7.188;2023-05-14T19:31:25;18.50;71.20
9941;DHT22;5009;50.656;7.188;2023-05-14T19:33:50;18.40;68.50
9941;DHT22;5009;50.656;7.188;2023-05-14T19:36:18;18.30;68.80
9941;DHT22;5009;50.656;7.188;2023-05-14T19:38:44;18.20;70.80
9941;DHT22;5009;50.656;7.188;2023-05-14T19:41:09;18.20;72.70
9941;DHT22;5009;50.656;7.188;2023-05-14T19:43:35;18.20;74.40
9941;DHT22;5009;50.656;7.188;2023-05-14T19:46:00;18.00;76.70
9941;DHT22;5009;50.656;7.188;2023-05-14T19:48:26;17.90;78.00
9941;DHT22;5009;50.656;7.188;2023-05-14T19:50:52;17.90;79.30
9941;DHT22;5009;50.656;7.188;2023-05-14T19:53:17;17.80;81.20
9941;DHT22;5009;50.656;7.188;2023-05-14T19:55:43;17.70;82.70
9941;DHT22;5009;50.656;7.188;2023-05-14T19:58:08;17.50;84.10